Terminal Aerodrome Forecast
Issued by NWS

Home | Current Version | Previous Version | Text Only | Print | Product List | Glossary On
Versions: 1 2 3 4 5 6 7 8 9 10 11 12 13 14 15
000
FTUS43 KSGF 301900 AAA
TAFBBG
TAF AMD
KBBG 301924Z 3019/3118 19010KT P6SM SCT100 BKN200
     FM302100 27010KT P6SM SCT250
     FM302300 31006KT P6SM SKC WS020/01035KT
     FM311500 33015G22KT P6SM SCT050=

USA.gov is the U.S. government's official web portal to all federal, state and local government web resources and services.